Terminal Aerodrome Forecast
Issued by NWS Duluth, MN

Home | Current Version | Previous Version | Text Only | Print | Product List | Glossary On
Versions: 1 2 3 4 5 6 7 8 9 10 11 12 13 14 15 16 17 18 19 20 21 22 23 24 25 26 27 28 29 30 31 32 33 34 35 36 37 38 39 40 41 42
000
FTUS43 KDLH 171300 AAA
TAFDLH
TAF AMD
KDLH 171339Z 1714/1812 27008KT P6SM SKC
     FM171500 31008KT P6SM SKC
     FM171700 03008KT P6SM SKC
     FM172000 09012G22KT P6SM VCSH BKN015
     FM180400 08012KT P6SM SCT015 BKN035=

USA.gov is the U.S. government's official web portal to all federal, state and local government web resources and services.